sensor_id;sensor_type;location;lat;lon;timestamp;P1;durP1;ratioP1;P2;durP2;ratioP2
20729;SDS011;10526;50.850;12.928;2024-03-07T00:02:20;32.30;;;15.50;;
20729;SDS011;10526;50.850;12.928;2024-03-07T00:06:42;36.58;;;17.25;;
20729;SDS011;10526;50.850;12.928;2024-03-07T00:11:04;28.73;;;15.00;;
20729;SDS011;10526;50.850;12.928;2024-03-07T00:15:26;32.45;;;15.02;;
20729;SDS011;10526;50.850;12.928;2024-03-07T00:19:50;32.08;;;15.77;;
20729;SDS011;10526;50.850;12.928;2024-03-07T00:24:13;29.63;;;15.15;;
20729;SDS011;10526;50.850;12.928;2024-03-07T00:28:36;31.27;;;15.75;;
20729;SDS011;10526;50.850;12.928;2024-03-07T00:33:00;27.85;;;14.73;;
20729;SDS011;10526;50.850;12.928;2024-03-07T00:37:23;30.75;;;14.80;;
20729;SDS011;10526;50.850;12.928;2024-03-07T00:41:46;33.42;;;16.10;;
20729;SDS011;10526;50.850;12.928;2024-03-07T00:46:08;30.52;;;15.82;;
20729;SDS011;10526;50.850;12.928;2024-03-07T00:50:32;34.33;;;15.10;;
20729;SDS011;10526;50.850;12.928;2024-03-07T00:54:54;33.20;;;15.50;;
20729;SDS011;10526;50.850;12.928;2024-03-07T00:59:16;29.48;;;15.48;;
20729;SDS011;10526;50.850;12.928;2024-03-07T01:03:38;32.40;;;16.42;;
20729;SDS011;10526;50.850;12.928;2024-03-07T01:08:00;32.97;;;16.77;;
20729;SDS011;10526;50.850;12.928;2024-03-07T01:12:22;39.53;;;14.07;;
20729;SDS011;10526;50.850;12.928;2024-03-07T01:16:48;28.02;;;14.63;;
20729;SDS011;10526;50.850;12.928;2024-03-07T01:21:10;32.58;;;16.52;;
20729;SDS011;10526;50.850;12.928;2024-03-07T01:25:32;31.48;;;15.90;;
20729;SDS011;10526;50.850;12.928;2024-03-07T01:29:55;40.15;;;18.25;;
20729;SDS011;10526;50.850;12.928;2024-03-07T01:34:17;34.55;;;16.85;;
20729;SDS011;10526;50.850;12.928;2024-03-07T01:38:39;40.13;;;18.50;;
20729;SDS011;10526;50.850;12.928;2024-03-07T01:43:01;39.10;;;18.10;;
20729;SDS011;10526;50.850;12.928;2024-03-07T01:47:24;35.45;;;19.40;;
20729;SDS011;10526;50.850;12.928;2024-03-07T01:51:46;42.17;;;20.13;;
20729;SDS011;10526;50.850;12.928;2024-03-07T01:56:09;41.97;;;21.15;;
20729;SDS011;10526;50.850;12.928;2024-03-07T02:00:31;38.95;;;19.15;;
20729;SDS011;10526;50.850;12.928;2024-03-07T02:04:53;37.40;;;19.67;;
20729;SDS011;10526;50.850;12.928;2024-03-07T02:09:15;38.88;;;20.63;;
20729;SDS011;10526;50.850;12.928;2024-03-07T02:13:38;44.30;;;21.65;;
20729;SDS011;10526;50.850;12.928;2024-03-07T02:18:00;42.30;;;20.85;;
20729;SDS011;10526;50.850;12.928;2024-03-07T02:22:22;50.60;;;22.00;;
20729;SDS011;10526;50.850;12.928;2024-03-07T02:26:47;46.10;;;22.88;;
20729;SDS011;10526;50.850;12.928;2024-03-07T02:31:09;48.13;;;22.15;;
20729;SDS011;10526;50.850;12.928;2024-03-07T02:35:35;40.70;;;20.92;;
20729;SDS011;10526;50.850;12.928;2024-03-07T02:39:57;43.55;;;21.13;;
20729;SDS011;10526;50.850;12.928;2024-03-07T02:44:19;46.25;;;20.60;;
20729;SDS011;10526;50.850;12.928;2024-03-07T02:48:41;46.03;;;20.75;;
20729;SDS011;10526;50.850;12.928;2024-03-07T02:53:03;48.85;;;22.15;;
20729;SDS011;10526;50.850;12.928;2024-03-07T02:57:25;46.17;;;22.77;;
20729;SDS011;10526;50.850;12.928;2024-03-07T03:01:47;47.30;;;24.52;;
20729;SDS011;10526;50.850;12.928;2024-03-07T03:06:09;44.65;;;22.25;;
20729;SDS011;10526;50.850;12.928;2024-03-07T03:10:32;48.05;;;24.55;;
20729;SDS011;10526;50.850;12.928;2024-03-07T03:14:54;48.60;;;22.52;;
20729;SDS011;10526;50.850;12.928;2024-03-07T03:19:16;50.40;;;23.77;;
20729;SDS011;10526;50.850;12.928;2024-03-07T03:23:38;49.42;;;23.40;;
20729;SDS011;10526;50.850;12.928;2024-03-07T03:28:01;50.75;;;24.23;;
20729;SDS011;10526;50.850;12.928;2024-03-07T03:32:24;53.55;;;24.30;;
20729;SDS011;10526;50.850;12.928;2024-03-07T03:36:47;49.97;;;24.67;;
20729;SDS011;10526;50.850;12.928;2024-03-07T03:41:08;47.70;;;24.40;;
20729;SDS011;10526;50.850;12.928;2024-03-07T03:45:30;51.58;;;24.30;;
20729;SDS011;10526;50.850;12.928;2024-03-07T03:49:56;54.13;;;25.70;;
20729;SDS011;10526;50.850;12.928;2024-03-07T03:54:18;47.42;;;24.52;;
20729;SDS011;10526;50.850;12.928;2024-03-07T03:58:40;50.88;;;26.02;;
20729;SDS011;10526;50.850;12.928;2024-03-07T04:03:02;52.42;;;24.83;;
20729;SDS011;10526;50.850;12.928;2024-03-07T04:07:24;54.78;;;24.98;;
20729;SDS011;10526;50.850;12.928;2024-03-07T04:11:46;50.58;;;25.17;;
20729;SDS011;10526;50.850;12.928;2024-03-07T04:16:08;56.47;;;26.98;;
20729;SDS011;10526;50.850;12.928;2024-03-07T04:20:30;56.63;;;27.30;;
20729;SDS011;10526;50.850;12.928;2024-03-07T04:24:53;59.78;;;28.92;;
20729;SDS011;10526;50.850;12.928;2024-03-07T04:29:15;62.45;;;28.02;;
20729;SDS011;10526;50.850;12.928;2024-03-07T04:33:38;54.65;;;25.67;;
20729;SDS011;10526;50.850;12.928;2024-03-07T04:38:01;59.85;;;27.05;;
20729;SDS011;10526;50.850;12.928;2024-03-07T04:42:23;55.78;;;27.27;;
20729;SDS011;10526;50.850;12.928;2024-03-07T04:46:45;58.58;;;25.83;;
20729;SDS011;10526;50.850;12.928;2024-03-07T04:51:07;57.47;;;26.38;;
20729;SDS011;10526;50.850;12.928;2024-03-07T04:55:29;61.05;;;26.23;;
20729;SDS011;10526;50.850;12.928;2024-03-07T04:59:51;52.50;;;25.75;;
20729;SDS011;10526;50.850;12.928;2024-03-07T05:04:14;57.40;;;24.98;;
20729;SDS011;10526;50.850;12.928;2024-03-07T05:08:37;60.50;;;27.15;;
20729;SDS011;10526;50.850;12.928;2024-03-07T05:12:58;57.70;;;26.88;;
20729;SDS011;10526;50.850;12.928;2024-03-07T05:17:20;75.35;;;39.05;;
20729;SDS011;10526;50.850;12.928;2024-03-07T05:21:43;61.65;;;29.38;;
20729;SDS011;10526;50.850;12.928;2024-03-07T05:26:05;67.38;;;30.65;;
20729;SDS011;10526;50.850;12.928;2024-03-07T05:30:27;58.40;;;28.73;;
20729;SDS011;10526;50.850;12.928;2024-03-07T05:34:51;66.05;;;30.35;;
20729;SDS011;10526;50.850;12.928;2024-03-07T05:39:17;73.00;;;33.65;;
20729;SDS011;10526;50.850;12.928;2024-03-07T05:43:39;69.07;;;33.28;;
20729;SDS011;10526;50.850;12.928;2024-03-07T05:48:13;74.63;;;35.42;;
20729;SDS011;10526;50.850;12.928;2024-03-07T05:52:44;65.13;;;31.85;;
20729;SDS011;10526;50.850;12.928;2024-03-07T05:57:06;58.63;;;30.77;;
20729;SDS011;10526;50.850;12.928;2024-03-07T06:01:28;66.85;;;34.17;;
20729;SDS011;10526;50.850;12.928;2024-03-07T06:05:52;66.47;;;32.92;;
20729;SDS011;10526;50.850;12.928;2024-03-07T06:10:15;59.42;;;31.48;;
20729;SDS011;10526;50.850;12.928;2024-03-07T06:14:38;60.28;;;31.00;;
20729;SDS011;10526;50.850;12.928;2024-03-07T06:19:00;59.15;;;31.52;;
20729;SDS011;10526;50.850;12.928;2024-03-07T06:23:31;61.40;;;31.85;;
20729;SDS011;10526;50.850;12.928;2024-03-07T06:27:54;54.53;;;29.00;;
20729;SDS011;10526;50.850;12.928;2024-03-07T06:32:17;55.33;;;30.13;;
20729;SDS011;10526;50.850;12.928;2024-03-07T06:36:39;50.92;;;27.77;;
20729;SDS011;10526;50.850;12.928;2024-03-07T06:41:01;48.17;;;25.60;;
20729;SDS011;10526;50.850;12.928;2024-03-07T06:45:23;47.40;;;22.45;;
20729;SDS011;10526;50.850;12.928;2024-03-07T06:49:45;42.33;;;24.10;;
20729;SDS011;10526;50.850;12.928;2024-03-07T06:54:07;42.97;;;23.15;;
20729;SDS011;10526;50.850;12.928;2024-03-07T06:58:30;40.90;;;22.15;;
20729;SDS011;10526;50.850;12.928;2024-03-07T07:02:53;40.35;;;21.25;;
20729;SDS011;10526;50.850;12.928;2024-03-07T07:07:15;42.53;;;21.48;;
20729;SDS011;10526;50.850;12.928;2024-03-07T07:11:37;41.15;;;22.05;;
20729;SDS011;10526;50.850;12.928;2024-03-07T07:16:00;39.42;;;21.67;;
20729;SDS011;10526;50.850;12.928;2024-03-07T07:20:23;34.75;;;20.33;;
20729;SDS011;10526;50.850;12.928;2024-03-07T07:24:45;34.78;;;19.77;;
20729;SDS011;10526;50.850;12.928;2024-03-07T07:29:07;34.05;;;17.52;;
20729;SDS011;10526;50.850;12.928;2024-03-07T07:33:29;31.60;;;16.73;;
20729;SDS011;10526;50.850;12.928;2024-03-07T07:37:52;28.75;;;15.13;;
20729;SDS011;10526;50.850;12.928;2024-03-07T07:42:16;29.40;;;15.68;;
20729;SDS011;10526;50.850;12.928;2024-03-07T07:46:38;31.48;;;16.30;;
20729;SDS011;10526;50.850;12.928;2024-03-07T07:51:01;31.20;;;17.10;;
20729;SDS011;10526;50.850;12.928;2024-03-07T07:55:27;35.53;;;16.20;;
20729;SDS011;10526;50.850;12.928;2024-03-07T07:59:49;31.05;;;16.38;;
20729;SDS011;10526;50.850;12.928;2024-03-07T08:04:11;35.95;;;18.40;;
20729;SDS011;10526;50.850;12.928;2024-03-07T08:08:33;32.83;;;18.20;;
20729;SDS011;10526;50.850;12.928;2024-03-07T08:12:56;30.98;;;16.98;;
20729;SDS011;10526;50.850;12.928;2024-03-07T08:17:18;33.20;;;19.00;;
20729;SDS011;10526;50.850;12.928;2024-03-07T08:21:41;33.13;;;17.25;;
20729;SDS011;10526;50.850;12.928;2024-03-07T08:26:03;36.90;;;20.17;;
20729;SDS011;10526;50.850;12.928;2024-03-07T08:30:26;40.15;;;22.02;;
20729;SDS011;10526;50.850;12.928;2024-03-07T08:34:50;46.35;;;22.92;;
20729;SDS011;10526;50.850;12.928;2024-03-07T08:39:12;48.67;;;23.88;;
20729;SDS011;10526;50.850;12.928;2024-03-07T08:43:35;45.55;;;23.73;;
20729;SDS011;10526;50.850;12.928;2024-03-07T08:47:58;41.75;;;21.25;;
20729;SDS011;10526;50.850;12.928;2024-03-07T08:52:21;32.67;;;16.63;;
20729;SDS011;10526;50.850;12.928;2024-03-07T08:56:43;33.17;;;16.92;;
20729;SDS011;10526;50.850;12.928;2024-03-07T09:01:06;34.28;;;17.58;;
20729;SDS011;10526;50.850;12.928;2024-03-07T09:05:28;37.33;;;15.95;;
20729;SDS011;10526;50.850;12.928;2024-03-07T09:09:55;31.48;;;14.75;;
20729;SDS011;10526;50.850;12.928;2024-03-07T09:14:18;28.30;;;14.48;;
20729;SDS011;10526;50.850;12.928;2024-03-07T09:18:40;27.27;;;13.75;;
20729;SDS011;10526;50.850;12.928;2024-03-07T09:23:02;26.90;;;13.25;;
20729;SDS011;10526;50.850;12.928;2024-03-07T09:27:24;27.33;;;13.57;;
20729;SDS011;10526;50.850;12.928;2024-03-07T09:31:46;29.60;;;15.10;;
20729;SDS011;10526;50.850;12.928;2024-03-07T09:36:12;28.10;;;13.23;;
20729;SDS011;10526;50.850;12.928;2024-03-07T09:40:35;30.63;;;15.73;;
20729;SDS011;10526;50.850;12.928;2024-03-07T09:44:57;30.98;;;16.50;;
20729;SDS011;10526;50.850;12.928;2024-03-07T09:49:22;30.50;;;14.95;;
20729;SDS011;10526;50.850;12.928;2024-03-07T09:53:45;31.40;;;14.90;;
20729;SDS011;10526;50.850;12.928;2024-03-07T09:58:12;32.55;;;15.10;;
20729;SDS011;10526;50.850;12.928;2024-03-07T10:02:37;26.40;;;14.27;;
20729;SDS011;10526;50.850;12.928;2024-03-07T10:07:02;26.67;;;11.98;;
20729;SDS011;10526;50.850;12.928;2024-03-07T10:11:25;28.20;;;13.25;;
20729;SDS011;10526;50.850;12.928;2024-03-07T10:15:47;29.17;;;12.82;;
20729;SDS011;10526;50.850;12.928;2024-03-07T10:20:11;29.05;;;13.88;;
20729;SDS011;10526;50.850;12.928;2024-03-07T10:24:34;27.65;;;12.48;;
20729;SDS011;10526;50.850;12.928;2024-03-07T10:28:57;26.02;;;12.52;;
20729;SDS011;10526;50.850;12.928;2024-03-07T10:33:19;26.63;;;12.57;;
20729;SDS011;10526;50.850;12.928;2024-03-07T10:37:41;22.33;;;11.57;;
20729;SDS011;10526;50.850;12.928;2024-03-07T10:42:06;25.38;;;12.48;;
20729;SDS011;10526;50.850;12.928;2024-03-07T10:46:28;29.27;;;10.95;;
20729;SDS011;10526;50.850;12.928;2024-03-07T10:50:58;23.25;;;9.07;;
20729;SDS011;10526;50.850;12.928;2024-03-07T10:55:58;22.15;;;10.10;;
20729;SDS011;10526;50.850;12.928;2024-03-07T11:00:39;27.38;;;11.02;;
20729;SDS011;10526;50.850;12.928;2024-03-07T11:05:07;24.58;;;11.10;;
20729;SDS011;10526;50.850;12.928;2024-03-07T11:09:33;26.67;;;11.60;;
20729;SDS011;10526;50.850;12.928;2024-03-07T11:13:56;23.08;;;11.27;;
20729;SDS011;10526;50.850;12.928;2024-03-07T11:18:20;22.25;;;11.85;;
20729;SDS011;10526;50.850;12.928;2024-03-07T11:22:42;23.48;;;12.25;;
20729;SDS011;10526;50.850;12.928;2024-03-07T11:27:06;25.77;;;12.50;;
20729;SDS011;10526;50.850;12.928;2024-03-07T11:31:35;26.20;;;12.30;;
20729;SDS011;10526;50.850;12.928;2024-03-07T11:36:00;25.42;;;12.18;;
20729;SDS011;10526;50.850;12.928;2024-03-07T11:44:48;22.27;;;11.77;;
20729;SDS011;10526;50.850;12.928;2024-03-07T11:49:13;24.17;;;12.63;;
20729;SDS011;10526;50.850;12.928;2024-03-07T11:53:40;26.40;;;12.10;;
20729;SDS011;10526;50.850;12.928;2024-03-07T11:58:02;22.38;;;11.90;;
20729;SDS011;10526;50.850;12.928;2024-03-07T12:02:25;23.38;;;11.25;;
20729;SDS011;10526;50.850;12.928;2024-03-07T12:06:51;22.88;;;10.73;;
20729;SDS011;10526;50.850;12.928;2024-03-07T12:11:13;25.65;;;12.02;;
20729;SDS011;10526;50.850;12.928;2024-03-07T12:15:37;25.80;;;11.68;;
20729;SDS011;10526;50.850;12.928;2024-03-07T12:20:00;24.50;;;11.73;;
20729;SDS011;10526;50.850;12.928;2024-03-07T12:24:42;23.08;;;11.43;;
20729;SDS011;10526;50.850;12.928;2024-03-07T12:29:08;24.58;;;9.48;;
20729;SDS011;10526;50.850;12.928;2024-03-07T12:33:33;21.92;;;10.85;;
20729;SDS011;10526;50.850;12.928;2024-03-07T12:38:01;24.25;;;12.13;;
20729;SDS011;10526;50.850;12.928;2024-03-07T12:42:25;23.20;;;11.55;;
20729;SDS011;10526;50.850;12.928;2024-03-07T12:46:52;24.55;;;12.90;;
20729;SDS011;10526;50.850;12.928;2024-03-07T12:51:18;25.15;;;12.75;;
20729;SDS011;10526;50.850;12.928;2024-03-07T12:55:45;25.92;;;12.45;;
20729;SDS011;10526;50.850;12.928;2024-03-07T13:00:09;27.05;;;13.43;;
20729;SDS011;10526;50.850;12.928;2024-03-07T13:04:41;24.48;;;13.27;;
20729;SDS011;10526;50.850;12.928;2024-03-07T13:09:05;25.08;;;12.60;;
20729;SDS011;10526;50.850;12.928;2024-03-07T13:13:32;30.50;;;13.13;;
20729;SDS011;10526;50.850;12.928;2024-03-07T13:17:55;29.38;;;14.10;;
20729;SDS011;10526;50.850;12.928;2024-03-07T13:22:17;27.13;;;14.60;;
20729;SDS011;10526;50.850;12.928;2024-03-07T13:26:39;30.73;;;16.58;;
20729;SDS011;10526;50.850;12.928;2024-03-07T13:31:07;27.55;;;13.82;;
20729;SDS011;10526;50.850;12.928;2024-03-07T13:35:29;32.30;;;17.35;;
20729;SDS011;10526;50.850;12.928;2024-03-07T13:39:51;34.10;;;15.70;;
20729;SDS011;10526;50.850;12.928;2024-03-07T13:44:13;31.27;;;16.95;;
20729;SDS011;10526;50.850;12.928;2024-03-07T13:48:36;31.83;;;16.90;;
20729;SDS011;10526;50.850;12.928;2024-03-07T13:52:58;26.40;;;14.38;;
20729;SDS011;10526;50.850;12.928;2024-03-07T13:57:41;32.50;;;17.02;;
20729;SDS011;10526;50.850;12.928;2024-03-07T14:02:26;26.90;;;14.50;;
20729;SDS011;10526;50.850;12.928;2024-03-07T14:07:16;27.67;;;15.57;;
20729;SDS011;10526;50.850;12.928;2024-03-07T14:31:03;29.90;;;15.48;;
20729;SDS011;10526;50.850;12.928;2024-03-07T14:40:26;28.95;;;16.42;;
20729;SDS011;10526;50.850;12.928;2024-03-07T14:44:49;30.67;;;16.52;;
20729;SDS011;10526;50.850;12.928;2024-03-07T14:49:16;26.75;;;14.60;;
20729;SDS011;10526;50.850;12.928;2024-03-07T14:53:39;26.90;;;15.45;;
20729;SDS011;10526;50.850;12.928;2024-03-07T14:58:05;33.97;;;16.13;;
20729;SDS011;10526;50.850;12.928;2024-03-07T15:02:30;29.08;;;15.32;;
20729;SDS011;10526;50.850;12.928;2024-03-07T15:06:54;36.70;;;16.90;;
20729;SDS011;10526;50.850;12.928;2024-03-07T15:11:23;28.77;;;16.42;;
20729;SDS011;10526;50.850;12.928;2024-03-07T15:15:55;20.90;;;10.55;;
20729;SDS011;10526;50.850;12.928;2024-03-07T15:20:19;31.48;;;14.50;;
20729;SDS011;10526;50.850;12.928;2024-03-07T15:24:44;29.77;;;15.35;;
20729;SDS011;10526;50.850;12.928;2024-03-07T15:29:06;27.52;;;14.13;;
20729;SDS011;10526;50.850;12.928;2024-03-07T15:33:28;28.83;;;15.90;;
20729;SDS011;10526;50.850;12.928;2024-03-07T15:37:52;31.70;;;16.02;;
20729;SDS011;10526;50.850;12.928;2024-03-07T15:42:14;28.67;;;14.63;;
20729;SDS011;10526;50.850;12.928;2024-03-07T15:46:36;27.48;;;12.68;;
20729;SDS011;10526;50.850;12.928;2024-03-07T15:50:58;31.77;;;14.00;;
20729;SDS011;10526;50.850;12.928;2024-03-07T15:55:21;28.52;;;12.35;;
20729;SDS011;10526;50.850;12.928;2024-03-07T15:59:45;26.95;;;14.00;;
20729;SDS011;10526;50.850;12.928;2024-03-07T16:04:07;33.10;;;14.88;;
20729;SDS011;10526;50.850;12.928;2024-03-07T16:08:29;32.65;;;16.48;;
20729;SDS011;10526;50.850;12.928;2024-03-07T16:12:55;30.20;;;14.20;;
20729;SDS011;10526;50.850;12.928;2024-03-07T16:17:18;24.52;;;11.05;;
20729;SDS011;10526;50.850;12.928;2024-03-07T16:21:44;24.13;;;12.43;;
20729;SDS011;10526;50.850;12.928;2024-03-07T16:26:06;25.65;;;13.07;;
20729;SDS011;10526;50.850;12.928;2024-03-07T16:30:28;24.45;;;12.10;;
20729;SDS011;10526;50.850;12.928;2024-03-07T16:34:51;25.73;;;12.80;;
20729;SDS011;10526;50.850;12.928;2024-03-07T16:39:13;27.27;;;12.27;;
20729;SDS011;10526;50.850;12.928;2024-03-07T16:43:35;24.02;;;12.02;;
20729;SDS011;10526;50.850;12.928;2024-03-07T16:47:58;26.13;;;13.52;;
20729;SDS011;10526;50.850;12.928;2024-03-07T16:52:23;25.55;;;12.27;;
20729;SDS011;10526;50.850;12.928;2024-03-07T16:56:45;27.55;;;12.82;;
20729;SDS011;10526;50.850;12.928;2024-03-07T17:01:07;27.02;;;12.02;;
20729;SDS011;10526;50.850;12.928;2024-03-07T17:05:30;27.48;;;13.40;;
20729;SDS011;10526;50.850;12.928;2024-03-07T17:10:00;30.38;;;13.90;;
20729;SDS011;10526;50.850;12.928;2024-03-07T17:14:23;33.10;;;14.18;;
20729;SDS011;10526;50.850;12.928;2024-03-07T17:18:45;32.00;;;15.23;;
20729;SDS011;10526;50.850;12.928;2024-03-07T17:23:07;26.90;;;12.82;;
20729;SDS011;10526;50.850;12.928;2024-03-07T17:27:30;30.63;;;15.40;;
20729;SDS011;10526;50.850;12.928;2024-03-07T17:31:52;26.73;;;14.25;;
20729;SDS011;10526;50.850;12.928;2024-03-07T17:36:14;27.83;;;15.27;;
20729;SDS011;10526;50.850;12.928;2024-03-07T17:40:39;30.60;;;15.82;;
20729;SDS011;10526;50.850;12.928;2024-03-07T17:45:01;33.50;;;16.80;;
20729;SDS011;10526;50.850;12.928;2024-03-07T17:49:32;32.55;;;14.98;;
20729;SDS011;10526;50.850;12.928;2024-03-07T17:53:55;30.25;;;15.07;;
20729;SDS011;10526;50.850;12.928;2024-03-07T17:58:18;35.00;;;15.85;;
20729;SDS011;10526;50.850;12.928;2024-03-07T18:02:44;30.90;;;16.50;;
20729;SDS011;10526;50.850;12.928;2024-03-07T18:07:10;30.05;;;16.33;;
20729;SDS011;10526;50.850;12.928;2024-03-07T18:11:32;33.17;;;15.23;;
20729;SDS011;10526;50.850;12.928;2024-03-07T18:15:54;39.17;;;19.75;;
20729;SDS011;10526;50.850;12.928;2024-03-07T18:20:16;28.45;;;14.90;;
20729;SDS011;10526;50.850;12.928;2024-03-07T18:24:38;29.88;;;16.23;;
20729;SDS011;10526;50.850;12.928;2024-03-07T18:29:00;31.63;;;15.68;;
20729;SDS011;10526;50.850;12.928;2024-03-07T18:33:24;29.67;;;15.60;;
20729;SDS011;10526;50.850;12.928;2024-03-07T18:37:46;30.58;;;15.65;;
20729;SDS011;10526;50.850;12.928;2024-03-07T18:42:11;31.83;;;15.73;;
20729;SDS011;10526;50.850;12.928;2024-03-07T18:46:34;32.40;;;16.77;;
20729;SDS011;10526;50.850;12.928;2024-03-07T18:50:57;27.98;;;15.15;;
20729;SDS011;10526;50.850;12.928;2024-03-07T18:55:20;30.48;;;15.90;;
20729;SDS011;10526;50.850;12.928;2024-03-07T18:59:50;30.75;;;17.02;;
20729;SDS011;10526;50.850;12.928;2024-03-07T19:04:12;32.58;;;16.88;;
20729;SDS011;10526;50.850;12.928;2024-03-07T19:08:34;30.38;;;16.15;;
20729;SDS011;10526;50.850;12.928;2024-03-07T19:12:59;29.40;;;16.73;;
20729;SDS011;10526;50.850;12.928;2024-03-07T19:17:22;30.83;;;15.93;;
20729;SDS011;10526;50.850;12.928;2024-03-07T19:21:44;87.10;;;41.97;;
20729;SDS011;10526;50.850;12.928;2024-03-07T19:26:07;30.63;;;17.10;;
20729;SDS011;10526;50.850;12.928;2024-03-07T19:30:30;35.55;;;17.13;;
20729;SDS011;10526;50.850;12.928;2024-03-07T19:34:57;30.60;;;17.08;;
20729;SDS011;10526;50.850;12.928;2024-03-07T19:39:19;35.88;;;17.90;;
20729;SDS011;10526;50.850;12.928;2024-03-07T19:43:43;31.98;;;17.98;;
20729;SDS011;10526;50.850;12.928;2024-03-07T19:48:05;36.10;;;18.92;;
20729;SDS011;10526;50.850;12.928;2024-03-07T19:52:31;34.95;;;18.45;;
20729;SDS011;10526;50.850;12.928;2024-03-07T19:56:56;33.88;;;17.40;;
20729;SDS011;10526;50.850;12.928;2024-03-07T20:01:25;36.95;;;19.73;;
20729;SDS011;10526;50.850;12.928;2024-03-07T20:05:49;34.83;;;19.00;;
20729;SDS011;10526;50.850;12.928;2024-03-07T20:10:14;34.53;;;17.55;;
20729;SDS011;10526;50.850;12.928;2024-03-07T20:14:36;36.80;;;18.42;;
20729;SDS011;10526;50.850;12.928;2024-03-07T20:18:58;33.92;;;17.38;;
20729;SDS011;10526;50.850;12.928;2024-03-07T20:23:21;38.38;;;19.80;;
20729;SDS011;10526;50.850;12.928;2024-03-07T20:27:50;33.85;;;18.17;;
20729;SDS011;10526;50.850;12.928;2024-03-07T20:32:17;38.10;;;18.85;;
20729;SDS011;10526;50.850;12.928;2024-03-07T20:36:39;35.55;;;20.23;;
20729;SDS011;10526;50.850;12.928;2024-03-07T20:41:02;37.60;;;19.25;;
20729;SDS011;10526;50.850;12.928;2024-03-07T20:45:25;38.63;;;20.25;;
20729;SDS011;10526;50.850;12.928;2024-03-07T20:49:49;37.03;;;19.05;;
20729;SDS011;10526;50.850;12.928;2024-03-07T20:54:11;38.10;;;19.35;;
20729;SDS011;10526;50.850;12.928;2024-03-07T20:58:38;38.42;;;19.45;;
20729;SDS011;10526;50.850;12.928;2024-03-07T21:03:00;40.53;;;19.45;;
20729;SDS011;10526;50.850;12.928;2024-03-07T21:07:25;37.65;;;20.60;;
20729;SDS011;10526;50.850;12.928;2024-03-07T21:11:47;34.83;;;19.23;;
20729;SDS011;10526;50.850;12.928;2024-03-07T21:16:09;35.30;;;18.92;;
20729;SDS011;10526;50.850;12.928;2024-03-07T21:20:33;36.53;;;18.83;;
20729;SDS011;10526;50.850;12.928;2024-03-07T21:24:55;38.10;;;19.98;;
20729;SDS011;10526;50.850;12.928;2024-03-07T21:29:17;42.22;;;19.80;;
20729;SDS011;10526;50.850;12.928;2024-03-07T21:33:39;38.90;;;18.65;;
20729;SDS011;10526;50.850;12.928;2024-03-07T21:38:01;37.75;;;19.45;;
20729;SDS011;10526;50.850;12.928;2024-03-07T21:42:27;36.92;;;19.42;;
20729;SDS011;10526;50.850;12.928;2024-03-07T21:46:49;37.50;;;19.45;;
20729;SDS011;10526;50.850;12.928;2024-03-07T21:51:11;38.80;;;20.65;;
20729;SDS011;10526;50.850;12.928;2024-03-07T21:55:34;38.78;;;21.15;;
20729;SDS011;10526;50.850;12.928;2024-03-07T21:59:56;41.75;;;21.73;;
20729;SDS011;10526;50.850;12.928;2024-03-07T22:04:18;39.25;;;21.45;;
20729;SDS011;10526;50.850;12.928;2024-03-07T22:08:40;39.70;;;22.27;;
20729;SDS011;10526;50.850;12.928;2024-03-07T22:13:03;44.13;;;22.88;;
20729;SDS011;10526;50.850;12.928;2024-03-07T22:17:30;45.35;;;22.73;;
20729;SDS011;10526;50.850;12.928;2024-03-07T22:21:52;38.88;;;20.63;;
20729;SDS011;10526;50.850;12.928;2024-03-07T22:26:14;45.60;;;23.10;;
20729;SDS011;10526;50.850;12.928;2024-03-07T22:30:37;44.83;;;23.15;;
20729;SDS011;10526;50.850;12.928;2024-03-07T22:35:01;51.28;;;21.50;;
20729;SDS011;10526;50.850;12.928;2024-03-07T22:39:32;44.72;;;23.25;;
20729;SDS011;10526;50.850;12.928;2024-03-07T22:43:54;49.80;;;24.73;;
20729;SDS011;10526;50.850;12.928;2024-03-07T22:48:16;41.80;;;21.00;;
20729;SDS011;10526;50.850;12.928;2024-03-07T22:52:39;39.33;;;20.10;;
20729;SDS011;10526;50.850;12.928;2024-03-07T22:57:04;44.95;;;21.67;;
20729;SDS011;10526;50.850;12.928;2024-03-07T23:01:30;37.53;;;18.50;;
20729;SDS011;10526;50.850;12.928;2024-03-07T23:05:53;47.42;;;21.55;;
20729;SDS011;10526;50.850;12.928;2024-03-07T23:10:15;44.50;;;20.48;;
20729;SDS011;10526;50.850;12.928;2024-03-07T23:14:40;45.22;;;21.90;;
20729;SDS011;10526;50.850;12.928;2024-03-07T23:19:02;40.33;;;21.30;;
20729;SDS011;10526;50.850;12.928;2024-03-07T23:23:24;47.25;;;21.80;;
20729;SDS011;10526;50.850;12.928;2024-03-07T23:27:46;50.10;;;24.40;;
20729;SDS011;10526;50.850;12.928;2024-03-07T23:32:08;44.80;;;22.20;;
20729;SDS011;10526;50.850;12.928;2024-03-07T23:36:30;47.40;;;24.58;;
20729;SDS011;10526;50.850;12.928;2024-03-07T23:40:52;47.50;;;24.48;;
20729;SDS011;10526;50.850;12.928;2024-03-07T23:45:13;54.60;;;25.33;;
20729;SDS011;10526;50.850;12.928;2024-03-07T23:49:35;51.42;;;25.83;;
20729;SDS011;10526;50.850;12.928;2024-03-07T23:53:57;47.92;;;24.25;;
20729;SDS011;10526;50.850;12.928;2024-03-07T23:58:19;50.65;;;26.58;;
